Time;durP1;ratioP1;P1;durP2;ratioP2;P2;SDS_P1;SDS_P2;PMS_P1;PMS_P2;Temp;Humidity;BMP_temperature;BMP_pressure;BME280_temperature;BME280_humidity;BME280_pressure;Samples;Min_cycle;Max_cycle;Signal;HPM_P1;HPM_P2
2021/04/22 00:00:48;;;;;;;0.60;0.60;;;4.70;99.90;;;;;;5091964;28;20210;-82
2021/04/22 00:03:15;;;;;;;0.60;0.60;;;4.50;99.90;;;;;;5091437;28;20199;-82
2021/04/22 00:05:43;;;;;;;0.60;0.60;;;4.50;99.90;;;;;;5091554;28;20573;-82
2021/04/22 00:08:11;;;;;;;0.60;0.60;;;4.50;99.90;;;;;;5091695;28;20202;-82
2021/04/22 00:10:39;;;;;;;0.60;0.60;;;4.50;99.90;;;;;;5091232;28;20256;-82
2021/04/22 00:13:06;;;;;;;0.60;0.60;;;4.50;99.90;;;;;;5091328;28;20231;-80
2021/04/22 00:15:32;;;;;;;0.60;0.60;;;4.50;99.90;;;;;;5091454;28;20199;-82
2021/04/22 00:17:59;;;;;;;0.60;0.60;;;4.40;99.90;;;;;;5091249;28;20626;-80
2021/04/22 00:20:26;;;;;;;0.55;0.55;;;4.30;99.90;;;;;;5091371;28;20277;-80
2021/04/22 00:22:54;;;;;;;0.60;0.60;;;4.30;99.90;;;;;;5091357;28;20203;-80
2021/04/22 00:25:20;;;;;;;0.60;0.60;;;4.20;99.90;;;;;;5090909;28;20203;-80
2021/04/22 00:27:46;;;;;;;0.60;0.60;;;4.10;99.90;;;;;;5091746;28;20288;-80
2021/04/22 00:30:15;;;;;;;0.60;0.60;;;4.00;99.90;;;;;;5091052;28;20207;-80
2021/04/22 00:32:42;;;;;;;0.60;0.60;;;4.00;99.90;;;;;;5090812;28;20736;-80
2021/04/22 00:35:10;;;;;;;0.60;0.60;;;4.00;99.90;;;;;;5091097;28;20211;-80
2021/04/22 00:37:36;;;;;;;0.50;0.50;;;3.90;99.90;;;;;;5091222;28;20253;-80
2021/04/22 00:40:06;;;;;;;0.60;0.60;;;3.90;99.90;;;;;;5090745;28;20669;-80
2021/04/22 00:42:32;;;;;;;0.60;0.60;;;3.80;99.90;;;;;;5090864;28;20206;-80
2021/04/22 00:44:59;;;;;;;0.60;0.60;;;3.80;99.90;;;;;;5090971;28;20207;-80
2021/04/22 00:47:26;;;;;;;0.60;0.60;;;3.70;99.90;;;;;;5090297;28;20234;-80
2021/04/22 00:49:53;;;;;;;0.60;0.60;;;3.60;99.90;;;;;;5090884;28;20210;-80
2021/04/22 00:52:19;;;;;;;0.50;0.50;;;3.60;99.90;;;;;;5090778;28;20236;-79
2021/04/22 00:54:46;;;;;;;0.60;0.60;;;3.60;99.90;;;;;;5090704;28;20233;-79
2021/04/22 00:57:13;;;;;;;0.60;0.60;;;3.60;99.90;;;;;;5090765;28;20213;-79
2021/04/22 00:59:40;;;;;;;0.60;0.60;;;3.50;99.90;;;;;;5090228;28;20211;-80
2021/04/22 01:02:07;;;;;;;0.60;0.60;;;3.50;99.90;;;;;;5090633;28;20206;-80
2021/04/22 01:04:33;;;;;;;0.60;0.60;;;3.40;99.90;;;;;;5090626;28;20199;-79
2021/04/22 01:07:02;;;;;;;0.60;0.60;;;3.40;99.90;;;;;;5090231;28;20207;-80
2021/04/22 01:09:28;;;;;;;0.50;0.50;;;3.40;99.90;;;;;;5090239;28;20211;-79
2021/04/22 01:11:56;;;;;;;0.60;0.60;;;3.40;99.90;;;;;;5090663;28;20362;-79
2021/04/22 01:14:23;;;;;;;0.60;0.60;;;3.30;99.90;;;;;;5090124;28;20606;-79
2021/04/22 01:16:50;;;;;;;0.60;0.60;;;3.40;99.90;;;;;;5090357;28;20210;-80
2021/04/22 01:19:16;;;;;;;0.60;0.60;;;3.30;99.90;;;;;;5090353;28;20199;-80
2021/04/22 01:21:43;;;;;;;0.60;0.60;;;3.30;99.90;;;;;;5090009;28;20377;-80
2021/04/22 01:24:10;;;;;;;0.60;0.60;;;3.30;99.90;;;;;;5090380;28;20199;-80
2021/04/22 01:26:36;;;;;;;0.60;0.60;;;3.30;99.90;;;;;;5089971;28;20219;-80
2021/04/22 01:29:03;;;;;;;0.60;0.60;;;3.40;99.90;;;;;;5089966;28;20338;-80
2021/04/22 01:31:30;;;;;;;0.60;0.60;;;3.40;99.90;;;;;;5090087;28;20207;-80
2021/04/22 01:34:00;;;;;;;0.60;0.60;;;3.40;99.90;;;;;;5089736;28;20223;-80
2021/04/22 01:36:30;;;;;;;0.60;0.60;;;3.30;99.90;;;;;;5089972;28;20543;-80
2021/04/22 01:38:58;;;;;;;0.50;0.50;;;3.30;99.90;;;;;;5089882;28;20559;-80
2021/04/22 01:41:24;;;;;;;0.60;0.60;;;3.30;99.90;;;;;;5089928;28;20252;-80
2021/04/22 01:43:50;;;;;;;0.60;0.60;;;3.40;99.90;;;;;;5089615;28;20215;-80
2021/04/22 01:46:16;;;;;;;0.60;0.60;;;3.30;99.90;;;;;;5089966;28;20206;-80
2021/04/22 01:48:42;;;;;;;0.60;0.60;;;3.30;99.90;;;;;;5089641;28;20227;-80
2021/04/22 01:51:08;;;;;;;0.60;0.60;;;3.30;99.90;;;;;;5089600;28;20358;-80
2021/04/22 01:53:35;;;;;;;0.60;0.60;;;3.30;99.90;;;;;;5089630;28;20218;-80
2021/04/22 01:56:02;;;;;;;0.60;0.60;;;3.30;99.90;;;;;;5086028;28;20256;-80
2021/04/22 01:58:28;;;;;;;0.60;0.60;;;3.30;99.90;;;;;;5088410;28;20257;-80
2021/04/22 02:00:57;;;;;;;0.60;0.60;;;3.30;99.90;;;;;;5088834;28;20210;-80
2021/04/22 02:03:24;;;;;;;0.60;0.60;;;3.30;99.90;;;;;;5088655;28;20248;-80
2021/04/22 02:05:50;;;;;;;0.60;0.60;;;3.30;99.90;;;;;;5088655;28;20261;-80
2021/04/22 02:08:16;;;;;;;0.60;0.60;;;3.30;99.90;;;;;;5088628;28;20233;-80
2021/04/22 02:10:44;;;;;;;0.60;0.60;;;3.40;99.90;;;;;;5088239;28;20207;-80
2021/04/22 02:13:14;;;;;;;0.60;0.60;;;3.30;99.90;;;;;;5088317;28;20222;-80
2021/04/22 02:15:40;;;;;;;0.60;0.60;;;3.30;99.90;;;;;;5088607;28;20203;-80
2021/04/22 02:18:06;;;;;;;0.60;0.60;;;3.40;99.90;;;;;;5088305;28;20248;-79
2021/04/22 02:20:33;;;;;;;0.60;0.60;;;3.40;99.90;;;;;;5088583;28;20202;-79
2021/04/22 02:23:00;;;;;;;0.60;0.60;;;3.40;99.90;;;;;;5088428;28;20202;-79
2021/04/22 02:25:27;;;;;;;0.60;0.60;;;3.40;99.90;;;;;;5088293;28;20285;-79
2021/04/22 02:27:54;;;;;;;0.60;0.60;;;3.50;99.90;;;;;;5088661;28;20253;-79
2021/04/22 02:30:24;;;;;;;0.60;0.60;;;3.50;99.90;;;;;;5088484;28;20665;-79
2021/04/22 02:32:51;;;;;;;0.60;0.60;;;3.50;99.90;;;;;;5088137;28;20223;-79
2021/04/22 02:35:19;;;;;;;0.60;0.60;;;3.50;99.90;;;;;;5088823;28;20233;-79
2021/04/22 02:37:46;;;;;;;0.60;0.60;;;3.60;99.90;;;;;;5088384;28;20199;-80
2021/04/22 02:40:15;;;;;;;0.60;0.60;;;3.60;99.90;;;;;;5088417;28;20591;-79
2021/04/22 02:42:43;;;;;;;0.55;0.55;;;3.70;99.90;;;;;;5088208;28;20206;-79
2021/04/22 02:45:11;;;;;;;0.60;0.60;;;3.90;99.90;;;;;;5088433;28;20665;-79
2021/04/22 02:47:38;;;;;;;0.60;0.60;;;3.90;99.90;;;;;;5086369;28;20231;-80
2021/04/22 02:50:06;;;;;;;0.50;0.50;;;4.00;99.90;;;;;;5087896;28;20211;-80
2021/04/22 02:52:32;;;;;;;0.60;0.60;;;4.20;99.90;;;;;;5089110;28;20203;-80
2021/04/22 02:54:58;;;;;;;0.55;0.55;;;4.20;99.90;;;;;;5088926;28;20272;-80
2021/04/22 02:57:24;;;;;;;0.60;0.60;;;4.30;99.90;;;;;;5089243;28;20711;-79
2021/04/22 02:59:50;;;;;;;0.60;0.60;;;4.10;99.90;;;;;;5089040;28;20207;-79
2021/04/22 03:02:18;;;;;;;0.60;0.60;;;4.30;99.90;;;;;;5088849;28;20203;-80
2021/04/22 03:04:45;;;;;;;0.60;0.60;;;4.30;99.90;;;;;;5089168;28;20199;-79
2021/04/22 03:07:11;;;;;;;0.60;0.60;;;4.40;99.90;;;;;;5088986;28;20215;-79
2021/04/22 03:09:38;;;;;;;0.65;0.65;;;4.40;99.90;;;;;;5088668;28;20293;-80
2021/04/22 03:12:05;;;;;;;0.60;0.60;;;4.40;99.90;;;;;;5089197;28;20207;-80
2021/04/22 03:14:32;;;;;;;0.60;0.60;;;4.50;99.90;;;;;;5088813;28;20227;-80
2021/04/22 03:16:58;;;;;;;0.57;0.57;;;4.50;99.90;;;;;;5088748;28;20206;-80
2021/04/22 03:19:24;;;;;;;0.60;0.60;;;4.50;99.90;;;;;;5088929;28;20203;-80
2021/04/22 03:21:51;;;;;;;0.70;0.70;;;4.60;99.90;;;;;;5088491;28;20199;-80
2021/04/22 03:24:17;;;;;;;0.60;0.60;;;4.70;99.90;;;;;;5089762;28;20221;-81
2021/04/22 03:26:43;;;;;;;0.60;0.60;;;4.80;99.90;;;;;;5092086;28;20249;-81
2021/04/22 03:29:09;;;;;;;0.60;0.60;;;4.80;99.90;;;;;;5092326;28;20211;-81
2021/04/22 03:31:35;;;;;;;0.60;0.60;;;4.70;99.90;;;;;;5092354;28;20213;-81
2021/04/22 03:34:02;;;;;;;0.60;0.60;;;4.70;99.90;;;;;;5091914;28;20758;-80
2021/04/22 03:36:28;;;;;;;0.60;0.60;;;4.70;99.90;;;;;;5092334;28;20206;-81
2021/04/22 03:38:55;;;;;;;0.60;0.60;;;4.80;99.90;;;;;;5091919;28;20217;-80
2021/04/22 03:41:24;;;;;;;0.60;0.60;;;4.80;99.90;;;;;;5091909;28;20256;-80
2021/04/22 03:43:50;;;;;;;0.63;0.63;;;4.90;99.90;;;;;;5092135;28;20199;-80
2021/04/22 03:46:17;;;;;;;0.60;0.60;;;4.80;99.90;;;;;;5092376;28;20203;-80
2021/04/22 03:48:43;;;;;;;0.60;0.60;;;4.80;99.90;;;;;;5091627;28;20227;-80
2021/04/22 03:51:09;;;;;;;0.60;0.60;;;4.80;99.90;;;;;;5092126;28;20207;-80
2021/04/22 03:53:35;;;;;;;0.60;0.60;;;4.70;99.90;;;;;;5091475;28;20225;-79
2021/04/22 03:56:04;;;;;;;0.60;0.60;;;4.70;99.90;;;;;;5091878;28;20214;-80
2021/04/22 03:58:30;;;;;;;0.60;0.60;;;4.70;99.90;;;;;;5091914;28;20677;-80
2021/04/22 04:00:57;;;;;;;0.60;0.60;;;4.70;99.90;;;;;;5091402;28;20669;-80
2021/04/22 04:03:23;;;;;;;0.57;0.57;;;4.70;99.90;;;;;;5091924;28;20195;-79
2021/04/22 04:05:49;;;;;;;0.60;0.60;;;4.60;99.90;;;;;;5091512;28;20210;-80
2021/04/22 04:08:15;;;;;;;0.60;0.60;;;4.60;99.90;;;;;;5091488;28;20203;-80
2021/04/22 04:10:41;;;;;;;0.60;0.60;;;4.70;99.90;;;;;;5091680;28;20199;-80
2021/04/22 04:13:08;;;;;;;0.50;0.50;;;4.70;99.90;;;;;;5091286;28;20227;-80
2021/04/22 04:15:36;;;;;;;0.60;0.60;;;4.80;99.90;;;;;;5091599;28;20203;-80
2021/04/22 04:18:05;;;;;;;0.60;0.60;;;5.00;99.90;;;;;;5091373;28;20256;-79
2021/04/22 04:20:31;;;;;;;0.57;0.57;;;4.80;99.90;;;;;;5091165;28;20203;-79
2021/04/22 04:22:57;;;;;;;0.50;0.50;;;4.80;99.90;;;;;;5091479;28;20207;-79
2021/04/22 04:25:23;;;;;;;0.60;0.60;;;4.70;99.90;;;;;;5091163;28;20207;-79
2021/04/22 04:27:50;;;;;;;0.60;0.60;;;4.90;99.90;;;;;;5090959;28;20256;-80
2021/04/22 04:30:19;;;;;;;0.60;0.60;;;4.90;99.90;;;;;;5091412;28;20203;-80
2021/04/22 04:32:45;;;;;;;0.60;0.60;;;5.00;99.90;;;;;;5099211;28;20535;-80
2021/04/22 04:35:13;;;;;;;0.60;0.60;;;4.90;99.90;;;;;;5098831;28;20195;-80
2021/04/22 04:37:40;;;;;;;0.55;0.55;;;4.90;99.90;;;;;;5091251;28;20203;-80
2021/04/22 04:40:09;;;;;;;0.60;0.60;;;4.90;99.90;;;;;;5099012;28;20202;-81
2021/04/22 04:42:35;;;;;;;0.60;0.60;;;4.90;99.90;;;;;;5101630;28;20191;-82
2021/04/22 04:45:02;;;;;;;0.60;0.60;;;4.80;99.90;;;;;;5100136;28;20214;-82
2021/04/22 04:47:29;;;;;;;0.60;0.60;;;4.90;99.90;;;;;;5100469;28;20221;-82
2021/04/22 04:49:55;;;;;;;0.60;0.60;;;4.90;99.90;;;;;;5101494;28;20665;-82
2021/04/22 04:52:21;;;;;;;0.60;0.60;;;5.00;99.90;;;;;;5099754;28;20195;-82
2021/04/22 04:54:47;;;;;;;0.60;0.60;;;5.00;99.90;;;;;;5100657;28;20218;-82
2021/04/22 04:57:15;;;;;;;0.60;0.60;;;5.00;99.90;;;;;;5103640;28;20648;-82
2021/04/22 04:59:41;;;;;;;0.60;0.60;;;5.10;99.90;;;;;;5090834;28;20212;-85
2021/04/22 05:02:07;;;;;;;0.60;0.60;;;5.10;99.90;;;;;;5093175;28;21213;-81
2021/04/22 05:04:34;;;;;;;0.60;0.60;;;5.20;99.90;;;;;;5099845;28;20194;-81
2021/04/22 05:07:00;;;;;;;0.60;0.60;;;5.30;99.90;;;;;;5094824;28;20203;-81
2021/04/22 05:09:26;;;;;;;0.60;0.60;;;5.60;99.90;;;;;;5090458;28;20252;-81
2021/04/22 05:11:53;;;;;;;0.60;0.60;;;5.70;99.90;;;;;;5090540;28;20213;-81
2021/04/22 05:14:19;;;;;;;0.60;0.60;;;5.70;99.90;;;;;;5090940;28;20222;-82
2021/04/22 05:16:45;;;;;;;0.60;0.60;;;5.70;99.90;;;;;;5110827;28;20198;-81
2021/04/22 05:19:11;;;;;;;0.60;0.60;;;5.60;99.90;;;;;;5105571;28;20571;-82
2021/04/22 05:21:38;;;;;;;0.60;0.60;;;5.60;99.90;;;;;;5109461;28;20194;-81
2021/04/22 05:24:13;;;;;;;0.60;0.60;;;5.90;99.90;;;;;;5116191;27;20185;-81
2021/04/22 05:26:40;;;;;;;0.60;0.60;;;6.90;99.90;;;;;;5115973;27;20217;-81
2021/04/22 05:29:06;;;;;;;0.60;0.60;;;6.40;99.90;;;;;;5109230;28;20354;-81
2021/04/22 05:31:32;;;;;;;0.60;0.60;;;5.90;99.90;;;;;;5110416;28;20214;-82
2021/04/22 05:33:58;;;;;;;0.60;0.60;;;5.90;99.90;;;;;;5110343;28;20237;-81
2021/04/22 05:36:24;;;;;;;0.50;0.50;;;5.80;99.90;;;;;;5110256;28;20203;-81
2021/04/22 05:38:52;;;;;;;0.50;0.50;;;5.70;99.90;;;;;;5110420;28;20206;-81
2021/04/22 05:41:18;;;;;;;0.60;0.60;;;5.90;99.90;;;;;;5110301;28;20729;-81
2021/04/22 05:43:44;;;;;;;0.60;0.60;;;5.80;99.90;;;;;;5109994;28;20374;-81
2021/04/22 05:46:10;;;;;;;0.60;0.60;;;8.30;99.90;;;;;;5110025;28;20282;-81
2021/04/22 05:48:36;;;;;;;0.50;0.50;;;6.30;99.90;;;;;;5109267;28;20431;-80
2021/04/22 05:51:06;;;;;;;0.60;0.60;;;6.10;99.90;;;;;;5110129;28;20202;-80
2021/04/22 05:53:32;;;;;;;0.60;0.60;;;7.10;99.90;;;;;;5110207;28;20214;-80
2021/04/22 05:55:59;;;;;;;0.60;0.60;;;6.00;99.90;;;;;;5109748;28;20202;-80
2021/04/22 05:58:25;;;;;;;0.60;0.60;;;6.00;99.90;;;;;;5110225;28;20207;-80
2021/04/22 06:00:51;;;;;;;0.60;0.60;;;6.10;99.90;;;;;;5109973;28;20202;-80
2021/04/22 06:03:17;;;;;;;0.60;0.60;;;6.20;99.90;;;;;;5110050;28;20197;-80
2021/04/22 06:05:44;;;;;;;0.60;0.60;;;6.20;99.90;;;;;;5110103;28;20217;-80
2021/04/22 06:08:10;;;;;;;0.60;0.60;;;6.20;99.90;;;;;;5109882;28;20593;-80
2021/04/22 06:10:38;;;;;;;0.57;0.57;;;6.10;99.90;;;;;;5110043;28;20213;-82
2021/04/22 06:13:06;;;;;;;0.60;0.60;;;6.10;99.90;;;;;;5109857;28;20301;-80
2021/04/22 06:15:32;;;;;;;0.57;0.57;;;6.10;99.90;;;;;;5109656;28;20209;-80
2021/04/22 06:17:59;;;;;;;0.60;0.60;;;6.00;99.90;;;;;;5110178;28;20206;-80
2021/04/22 06:20:25;;;;;;;0.60;0.60;;;6.00;99.90;;;;;;5109694;28;20251;-80
2021/04/22 06:22:52;;;;;;;0.60;0.60;;;6.00;99.90;;;;;;5109552;28;20230;-80
2021/04/22 06:25:20;;;;;;;0.60;0.60;;;6.00;99.90;;;;;;5109710;28;20206;-83
2021/04/22 06:27:46;;;;;;;0.60;0.60;;;6.10;99.90;;;;;;5109583;28;20213;-81
2021/04/22 06:30:16;;;;;;;0.60;0.60;;;6.10;99.90;;;;;;5109710;28;20202;-81
2021/04/22 06:32:42;;;;;;;0.60;0.60;;;6.20;99.90;;;;;;5110098;28;20293;-82
2021/04/22 06:35:10;;;;;;;0.60;0.60;;;6.10;99.90;;;;;;5109323;28;20241;-79
2021/04/22 06:37:36;;;;;;;0.60;0.60;;;6.20;99.90;;;;;;5109345;28;20486;-78
2021/04/22 06:40:05;;;;;;;0.60;0.60;;;6.20;99.90;;;;;;5109682;28;20246;-78
2021/04/22 06:42:31;;;;;;;0.60;0.60;;;6.20;99.90;;;;;;5109612;28;20663;-82
2021/04/22 06:44:57;;;;;;;0.60;0.60;;;6.20;99.90;;;;;;5109302;28;20946;-82
2021/04/22 06:47:24;;;;;;;0.60;0.60;;;6.20;99.90;;;;;;5109579;28;20245;-82
2021/04/22 06:49:52;;;;;;;0.60;0.60;;;6.20;99.90;;;;;;5109513;28;20206;-80
2021/04/22 06:52:21;;;;;;;0.60;0.60;;;6.30;99.90;;;;;;5109178;28;20213;-81
2021/04/22 06:54:47;;;;;;;0.60;0.60;;;6.30;99.90;;;;;;5109490;28;20229;-80
2021/04/22 06:57:14;;;;;;;0.55;0.55;;;6.30;99.90;;;;;;5109197;28;20210;-80
2021/04/22 06:59:41;;;;;;;0.60;0.60;;;6.30;99.90;;;;;;5112198;28;20202;-80
2021/04/22 07:02:08;;;;;;;0.60;0.60;;;6.30;99.90;;;;;;5113373;28;20198;-81
2021/04/22 07:04:34;;;;;;;0.60;0.60;;;6.40;99.90;;;;;;5113061;28;20203;-81
2021/04/22 07:07:01;;;;;;;0.60;0.60;;;6.30;99.90;;;;;;5113428;28;20539;-81
2021/04/22 07:09:27;;;;;;;0.60;0.60;;;6.50;99.90;;;;;;5113405;28;20210;-80
2021/04/22 07:11:53;;;;;;;0.60;0.60;;;6.50;99.90;;;;;;5112997;28;20199;-80
2021/04/22 07:14:19;;;;;;;0.60;0.60;;;6.60;99.90;;;;;;5113419;27;20230;-81
2021/04/22 07:16:45;;;;;;;0.60;0.60;;;6.70;99.90;;;;;;5113035;28;20198;-80
2021/04/22 07:19:12;;;;;;;0.60;0.60;;;6.80;99.90;;;;;;5112871;28;20206;-80
2021/04/22 07:21:38;;;;;;;0.50;0.50;;;7.00;99.90;;;;;;5112959;28;20218;-80
2021/04/22 07:24:05;;;;;;;0.50;0.50;;;7.10;99.90;;;;;;5112483;28;20206;-80
2021/04/22 07:26:31;;;;;;;0.60;0.60;;;7.10;99.90;;;;;;5112944;28;20230;-80
2021/04/22 07:28:57;;;;;;;0.50;0.50;;;7.10;99.90;;;;;;5112619;28;20206;-80
2021/04/22 07:31:24;;;;;;;0.60;0.60;;;7.20;99.90;;;;;;5112620;28;20202;-80
2021/04/22 07:33:52;;;;;;;0.60;0.60;;;7.40;99.90;;;;;;5112935;28;20218;-80
2021/04/22 07:36:18;;;;;;;0.60;0.60;;;7.40;99.90;;;;;;5112174;28;20271;-81
2021/04/22 07:38:45;;;;;;;0.50;0.50;;;7.30;99.90;;;;;;5112789;28;20206;-85
2021/04/22 07:41:12;;;;;;;0.60;0.60;;;7.00;99.90;;;;;;5112812;28;20206;-86
2021/04/22 07:43:38;;;;;;;0.60;0.60;;;7.10;99.90;;;;;;5113463;27;20282;-84
2021/04/22 07:46:04;;;;;;;0.60;0.60;;;7.20;99.90;;;;;;5115934;28;20220;-88
2021/04/22 07:48:30;;;;;;;0.60;0.60;;;7.30;99.90;;;;;;5113349;28;20241;-81
2021/04/22 07:50:57;;;;;;;0.60;0.60;;;7.20;99.90;;;;;;5112762;28;20239;-91
2021/04/22 07:53:23;;;;;;;0.60;0.60;;;7.20;99.90;;;;;;5112879;27;20278;-81
2021/04/22 07:55:50;;;;;;;0.60;0.60;;;7.10;99.90;;;;;;5112405;28;20206;-82
2021/04/22 07:58:17;;;;;;;0.60;0.60;;;7.10;99.90;;;;;;5112593;28;20202;-82
2021/04/22 08:00:45;;;;;;;0.60;0.60;;;7.10;99.90;;;;;;5112360;28;20202;-82
2021/04/22 08:03:13;;;;;;;0.50;0.50;;;7.30;99.90;;;;;;5112072;28;20745;-82
2021/04/22 08:05:40;;;;;;;0.60;0.60;;;7.50;99.90;;;;;;5112285;28;20632;-81
2021/04/22 08:08:08;;;;;;;0.60;0.60;;;7.60;99.90;;;;;;5112429;28;20208;-81
2021/04/22 08:10:36;;;;;;;0.60;0.60;;;7.70;99.90;;;;;;5111290;28;20209;-81
2021/04/22 08:13:04;;;;;;;0.60;0.60;;;7.70;99.90;;;;;;5111911;28;20259;-81
2021/04/22 08:15:31;;;;;;;0.60;0.60;;;7.60;99.90;;;;;;5112194;28;20662;-81
2021/04/22 08:17:57;;;;;;;0.60;0.60;;;7.70;99.90;;;;;;5111714;28;20206;-81
2021/04/22 08:20:25;;;;;;;0.60;0.60;;;7.60;99.90;;;;;;5111866;28;20209;-81
2021/04/22 08:22:52;;;;;;;0.60;0.60;;;7.70;99.90;;;;;;5112066;28;20301;-81
2021/04/22 08:25:22;;;;;;;0.60;0.60;;;7.60;99.90;;;;;;5111530;28;20203;-81
2021/04/22 08:27:51;;;;;;;0.57;0.57;;;7.80;99.90;;;;;;5112183;28;20206;-81
2021/04/22 08:30:21;;;;;;;0.60;0.60;;;7.90;99.90;;;;;;5111656;28;20210;-81
2021/04/22 08:32:48;;;;;;;0.60;0.60;;;8.20;99.90;;;;;;5112273;28;20231;-81
2021/04/22 08:35:15;;;;;;;0.57;0.57;;;8.40;99.90;;;;;;5111573;28;20229;-81
2021/04/22 08:37:41;;;;;;;0.50;0.50;;;8.20;99.90;;;;;;5111478;28;20209;-81
2021/04/22 08:40:11;;;;;;;0.60;0.60;;;8.10;99.90;;;;;;5111744;28;20206;-81
2021/04/22 08:42:38;;;;;;;0.50;0.50;;;8.00;99.90;;;;;;5111514;28;20201;-82
2021/04/22 08:45:06;;;;;;;0.60;0.60;;;8.20;99.90;;;;;;5111043;28;20209;-81
2021/04/22 08:47:33;;;;;;;0.60;0.60;;;8.20;99.90;;;;;;5111738;28;20291;-82
2021/04/22 08:49:59;;;;;;;0.60;0.60;;;8.20;99.90;;;;;;5111386;28;20255;-81
2021/04/22 08:52:26;;;;;;;0.50;0.50;;;8.10;99.90;;;;;;5111316;28;20364;-81
2021/04/22 08:54:52;;;;;;;0.60;0.60;;;8.00;99.90;;;;;;5111573;28;20219;-82
2021/04/22 08:57:19;;;;;;;0.60;0.60;;;8.20;99.90;;;;;;5111190;28;20429;-86
2021/04/22 08:59:47;;;;;;;0.50;0.50;;;8.40;99.90;;;;;;5111438;28;20713;-84
2021/04/22 09:02:13;;;;;;;0.60;0.60;;;8.50;99.90;;;;;;5109328;28;20577;-84
2021/04/22 09:04:40;;;;;;;0.60;0.60;;;8.40;99.90;;;;;;5111815;28;20198;-83
2021/04/22 09:07:06;;;;;;;0.60;0.60;;;8.40;99.90;;;;;;5106382;27;20209;-84
2021/04/22 09:09:32;;;;;;;0.60;0.60;;;8.60;99.90;;;;;;5104061;28;20201;-84
2021/04/22 09:11:59;;;;;;;0.60;0.60;;;8.80;99.90;;;;;;5107337;28;20210;-84
2021/04/22 09:14:25;;;;;;;0.60;0.60;;;8.70;99.90;;;;;;5109938;28;20222;-84
2021/04/22 09:16:51;;;;;;;0.60;0.60;;;8.60;99.90;;;;;;5110047;28;20202;-84
2021/04/22 09:19:22;;;;;;;0.60;0.60;;;8.50;99.90;;;;;;5110086;28;20232;-85
2021/04/22 09:21:53;;;;;;;0.60;0.60;;;8.80;99.90;;;;;;5109970;28;20202;-86
2021/04/22 09:24:22;;;;;;;0.60;0.60;;;8.50;99.90;;;;;;5110078;28;20202;-85
2021/04/22 09:26:52;;;;;;;0.60;0.60;;;8.50;99.90;;;;;;5109919;28;20226;-85
2021/04/22 09:29:31;;;;;;;0.57;0.57;;;8.30;99.90;;;;;;5109733;28;20241;-85
2021/04/22 09:32:07;;;;;;;0.60;0.60;;;8.40;99.90;;;;;;5110088;28;20434;-88
2021/04/22 09:34:33;;;;;;;0.60;0.60;;;8.40;99.90;;;;;;5109731;28;20221;-85
2021/04/22 09:37:00;;;;;;;0.60;0.60;;;8.60;99.90;;;;;;5109851;28;20251;-84
2021/04/22 09:39:28;;;;;;;0.60;0.60;;;8.70;99.90;;;;;;5109821;28;20209;-84
2021/04/22 09:41:59;;;;;;;0.57;0.57;;;8.70;99.90;;;;;;5109834;28;20233;-82
2021/04/22 09:44:26;;;;;;;0.60;0.60;;;8.70;99.90;;;;;;5109672;28;20202;-85
2021/04/22 09:47:03;;;;;;;0.60;0.60;;;8.60;99.90;;;;;;5109605;28;20198;-84
2021/04/22 09:49:30;;;;;;;0.60;0.60;;;8.50;99.90;;;;;;5109935;28;20206;-85
2021/04/22 09:52:07;;;;;;;0.60;0.60;;;8.40;99.90;;;;;;5109987;28;20255;-84
2021/04/22 09:54:42;;;;;;;0.50;0.50;;;8.50;99.90;;;;;;5110005;28;20607;-84
2021/04/22 09:57:11;;;;;;;0.60;0.60;;;8.70;99.90;;;;;;5110075;28;20202;-84
2021/04/22 09:59:43;;;;;;;0.60;0.60;;;8.80;99.90;;;;;;5110067;28;20210;-85
2021/04/22 10:02:09;;;;;;;0.55;0.55;;;8.60;99.90;;;;;;5109823;28;20554;-85
2021/04/22 10:04:38;;;;;;;0.60;0.60;;;8.90;99.90;;;;;;5109891;28;20232;-85
2021/04/22 10:07:05;;;;;;;0.60;0.60;;;9.00;99.90;;;;;;5109824;28;20202;-85
2021/04/22 10:09:33;;;;;;;0.60;0.60;;;9.30;99.90;;;;;;5109654;28;20209;-86
2021/04/22 10:12:00;;;;;;;0.60;0.60;;;9.30;99.90;;;;;;5109884;28;20228;-85
2021/04/22 10:14:31;;;;;;;0.60;0.60;;;9.20;99.90;;;;;;5109488;28;20283;-85
2021/04/22 10:16:57;;;;;;;0.60;0.60;;;9.10;99.90;;;;;;5109760;28;20255;-85
2021/04/22 10:19:23;;;;;;;0.60;0.60;;;8.90;99.90;;;;;;5109775;28;20210;-86
2021/04/22 10:21:49;;;;;;;0.60;0.60;;;9.10;99.90;;;;;;5117618;28;20202;-88
2021/04/22 10:24:18;;;;;;;0.60;0.60;;;9.10;99.90;;;;;;5119388;28;20266;-89
2021/04/22 10:26:46;;;;;;;0.60;0.60;;;9.30;99.90;;;;;;5119932;28;20222;-82
2021/04/22 10:29:16;;;;;;;0.60;0.60;;;9.10;99.90;;;;;;5136065;28;20198;-83
2021/04/22 10:31:44;;;;;;;0.60;0.60;;;8.90;99.90;;;;;;5317882;22;20268;-87
2021/04/22 10:34:11;;;;;;;0.60;0.60;;;10.70;99.90;;;;;;5046559;28;20212;-86
2021/04/22 10:36:55;;;;;;;0.60;0.60;;;9.50;99.90;;;;;;5046619;28;20205;-87
2021/04/22 10:39:28;;;;;;;0.60;0.60;;;11.10;99.90;;;;;;5055743;28;20201;-87
2021/04/22 10:41:56;;;;;;;0.60;0.60;;;9.00;99.90;;;;;;5049732;28;20212;-86
2021/04/22 10:44:24;;;;;;;0.50;0.50;;;8.90;99.90;;;;;;5040310;28;20233;-86
2021/04/22 10:46:52;;;;;;;0.60;0.60;;;11.20;99.90;;;;;;5045509;28;20274;-87
2021/04/22 10:49:19;;;;;;;0.60;0.60;;;11.20;99.90;;;;;;5042959;28;20670;-86
2021/04/22 10:51:45;;;;;;;0.60;0.60;;;7.60;99.90;;;;;;5035867;28;20201;-85
2021/04/22 10:54:11;;;;;;;0.60;0.60;;;9.10;99.90;;;;;;5034339;28;20633;-84
2021/04/22 10:56:38;;;;;;;0.60;0.60;;;8.90;99.90;;;;;;5033447;28;20208;-84
2021/04/22 10:59:05;;;;;;;0.60;0.60;;;8.80;99.90;;;;;;5032755;28;20209;-86
2021/04/22 11:01:34;;;;;;;0.60;0.60;;;8.90;99.90;;;;;;5032465;28;20227;-85
2021/04/22 11:04:09;;;;;;;0.60;0.60;;;8.70;99.90;;;;;;5034495;28;20207;-85
2021/04/22 11:06:37;;;;;;;0.60;0.60;;;9.20;99.90;;;;;;5032353;28;20216;-85
2021/04/22 11:09:16;;;;;;;0.60;0.60;;;9.20;99.90;;;;;;5030866;28;20635;-85
2021/04/22 11:12:01;;;;;;;0.60;0.60;;;8.90;99.90;;;;;;5031506;28;20212;-85
2021/04/22 11:14:37;;;;;;;0.57;0.57;;;8.70;99.90;;;;;;5033191;28;20224;-85
2021/04/22 11:17:04;;;;;;;0.60;0.60;;;9.10;99.90;;;;;;5033481;28;20204;-87
2021/04/22 11:19:33;;;;;;;0.60;0.60;;;9.80;99.90;;;;;;5033164;28;20258;-85
2021/04/22 11:22:03;;;;;;;0.57;0.57;;;10.20;99.90;;;;;;5033293;28;20209;-86
2021/04/22 11:24:32;;;;;;;0.60;0.60;;;10.00;99.90;;;;;;5033944;28;20205;-87
2021/04/22 11:27:00;;;;;;;0.60;0.60;;;9.90;99.90;;;;;;5033222;28;20225;-86
2021/04/22 11:29:26;;;;;;;0.60;0.60;;;9.80;99.90;;;;;;5033467;28;20570;-86
2021/04/22 11:31:56;;;;;;;0.60;0.60;;;10.20;99.90;;;;;;5033546;28;20248;-86
2021/04/22 11:34:40;;;;;;;0.60;0.60;;;10.10;99.90;;;;;;5034160;28;20229;-85
2021/04/22 11:37:14;;;;;;;0.57;0.57;;;10.20;99.90;;;;;;5033874;28;20659;-85
2021/04/22 11:39:40;;;;;;;0.60;0.60;;;10.20;99.90;;;;;;5034563;28;20205;-83
2021/04/22 11:42:07;;;;;;;0.60;0.60;;;9.90;99.90;;;;;;5032898;28;20709;-86
2021/04/22 11:44:35;;;;;;;0.57;0.57;;;9.70;99.90;;;;;;5032926;28;20201;-84
2021/04/22 11:47:14;;;;;;;0.60;0.60;;;9.80;99.90;;;;;;5032485;28;20228;-85
2021/04/22 11:49:40;;;;;;;0.60;0.60;;;10.10;99.90;;;;;;5033724;28;20552;-86
2021/04/22 11:52:14;;;;;;;0.60;0.60;;;10.10;99.90;;;;;;5033350;28;20255;-86
2021/04/22 11:54:41;;;;;;;0.60;0.60;;;9.90;99.90;;;;;;5032493;28;20289;-86
2021/04/22 11:57:07;;;;;;;0.50;0.50;;;9.70;99.90;;;;;;5032768;28;20212;-85
2021/04/22 11:59:34;;;;;;;0.60;0.60;;;9.50;99.90;;;;;;5032646;28;20221;-84
2021/04/22 12:02:04;;;;;;;0.50;0.50;;;9.30;99.90;;;;;;5029049;28;20201;-84
2021/04/22 12:04:43;;;;;;;0.60;0.60;;;9.10;99.90;;;;;;5028758;28;20201;-84
2021/04/22 12:07:13;;;;;;;0.60;0.60;;;9.10;99.90;;;;;;5037581;28;20507;-84
2021/04/22 12:09:41;;;;;;;0.60;0.60;;;9.10;99.90;;;;;;5048506;28;20642;-84
2021/04/22 12:12:10;;;;;;;0.57;0.57;;;9.00;99.90;;;;;;5046620;28;20208;-84
2021/04/22 12:14:37;;;;;;;0.60;0.60;;;9.00;99.90;;;;;;5048135;28;20721;-84
2021/04/22 12:17:05;;;;;;;0.60;0.60;;;8.80;99.90;;;;;;5049891;28;20507;-84
2021/04/22 12:19:31;;;;;;;0.60;0.60;;;8.80;99.90;;;;;;5044783;28;20208;-84
2021/04/22 12:22:00;;;;;;;0.50;0.50;;;8.80;99.90;;;;;;5048252;28;20204;-84
2021/04/22 12:24:27;;;;;;;0.60;0.60;;;8.80;99.90;;;;;;5044431;28;20640;-84
2021/04/22 12:26:53;;;;;;;0.60;0.60;;;8.80;99.90;;;;;;5046601;28;20232;-84
2021/04/22 12:29:20;;;;;;;0.60;0.60;;;8.70;99.90;;;;;;5046344;28;20255;-84
2021/04/22 12:31:49;;;;;;;0.60;0.60;;;8.70;99.90;;;;;;5051358;28;20722;-84
2021/04/22 12:34:19;;;;;;;0.60;0.60;;;8.50;99.90;;;;;;5047902;28;20220;-82
2021/04/22 12:36:54;;;;;;;0.50;0.50;;;8.40;99.90;;;;;;5047662;28;20547;-83
2021/04/22 12:39:27;;;;;;;0.60;0.60;;;8.50;99.90;;;;;;5046060;28;20302;-83
2021/04/22 12:42:08;;;;;;;0.60;0.60;;;8.60;99.90;;;;;;5046144;28;20626;-84
2021/04/22 12:44:36;;;;;;;0.50;0.50;;;9.10;99.90;;;;;;5047759;28;20740;-83
2021/04/22 12:47:05;;;;;;;0.57;0.57;;;9.60;99.90;;;;;;5044220;28;20215;-83
2021/04/22 12:49:32;;;;;;;0.60;0.60;;;9.50;99.90;;;;;;5043810;28;20226;-84
2021/04/22 12:51:59;;;;;;;0.57;0.57;;;9.30;99.90;;;;;;5038884;28;20745;-84
2021/04/22 12:55:15;;;;;;;0.60;0.60;;;9.20;99.90;;;;;;5027562;28;20232;-83
2021/04/22 12:57:41;;;;;;;0.60;0.60;;;8.90;99.90;;;;;;5025518;28;20625;-83
2021/04/22 13:00:10;;;;;;;0.60;0.60;;;8.90;99.90;;;;;;5026006;28;20338;-84